Time,TemperatureF,DewpointF,PressureIn,WindDirection,WindDirectionDegrees,WindSpeedMPH,WindSpeedGustMPH,Humidity,HourlyPrecipIn,Conditions,Clouds,dailyrainin,SoftwareType,DateUTC
2013-06-28 00:09:00,61.6,62.0,29.73,WNW,303,0.0,7.0,100,0.01,,,0.00,weatherlink.com 1.10,2013-06-28 04:09:00,
2013-06-28 00:25:00,61.2,61.0,29.73,WNW,297,0.0,5.0,100,0.02,,,0.01,weatherlink.com 1.10,2013-06-28 04:25:00,
2013-06-28 00:41:00,60.8,61.0,29.72,West,280,1.0,7.0,100,0.01,,,0.01,weatherlink.com 1.10,2013-06-28 04:41:00,
2013-06-28 00:57:00,60.7,61.0,29.71,WNW,284,1.0,4.0,100,0.01,,,0.01,weatherlink.com 1.10,2013-06-28 04:57:00,
2013-06-28 01:14:00,60.5,61.0,29.70,NE,44,1.0,6.0,100,0.01,,,0.01,weatherlink.com 1.10,2013-06-28 05:14:00,
2013-06-28 01:30:00,60.4,60.0,29.70,West,280,2.0,8.0,100,0.03,,,0.04,weatherlink.com 1.10,2013-06-28 05:30:00,
2013-06-28 01:46:00,60.2,60.0,29.69,ESE,103,2.0,6.0,100,0.05,,,0.06,weatherlink.com 1.10,2013-06-28 05:46:00,
2013-06-28 02:02:00,60.1,60.0,29.68,West,272,1.0,10.0,100,0.07,,,0.08,weatherlink.com 1.10,2013-06-28 06:02:00,
2013-06-28 02:20:00,60.0,60.0,29.67,West,269,2.0,12.0,100,0.09,,,0.10,weatherlink.com 1.10,2013-06-28 06:20:00,
2013-06-28 02:36:00,59.7,60.0,29.65,WNW,289,1.0,8.0,100,0.12,,,0.17,weatherlink.com 1.10,2013-06-28 06:36:00,
2013-06-28 02:53:00,59.3,59.0,29.62,North,357,1.0,6.0,100,0.18,,,0.25,weatherlink.com 1.10,2013-06-28 06:53:00,
2013-06-28 03:09:00,59.2,59.0,29.62,WSW,256,3.0,6.0,100,0.23,,,0.31,weatherlink.com 1.10,2013-06-28 07:09:00,
2013-06-28 03:25:00,58.8,59.0,29.61,WNW,285,1.0,7.0,100,0.34,,,0.44,weatherlink.com 1.10,2013-06-28 07:25:00,
2013-06-28 03:41:00,58.2,58.0,29.60,NE,43,2.0,12.0,100,0.39,,,0.58,weatherlink.com 1.10,2013-06-28 07:41:00,
2013-06-28 03:57:00,57.8,58.0,29.61,WSW,248,2.0,9.0,99,0.44,,,0.72,weatherlink.com 1.10,2013-06-28 07:57:00,
2013-06-28 04:14:00,57.4,57.0,29.60,West,267,2.0,8.0,99,0.41,,,0.75,weatherlink.com 1.10,2013-06-28 08:14:00,
2013-06-28 04:30:00,56.9,57.0,29.60,West,268,3.0,9.0,99,0.26,,,0.77,weatherlink.com 1.10,2013-06-28 08:30:00,
2013-06-28 04:46:00,56.6,57.0,29.60,NW,323,1.0,6.0,100,0.16,,,0.80,weatherlink.com 1.10,2013-06-28 08:46:00,
2013-06-28 05:02:00,56.4,56.0,29.59,ESE,114,2.0,8.0,100,0.09,,,0.81,weatherlink.com 1.10,2013-06-28 09:02:00,
2013-06-28 05:19:00,56.3,56.0,29.59,WNW,298,1.0,6.0,100,0.11,,,0.87,weatherlink.com 1.10,2013-06-28 09:19:00,
2013-06-28 05:35:00,56.1,56.0,29.59,WNW,303,2.0,7.0,100,0.10,,,0.89,weatherlink.com 1.10,2013-06-28 09:35:00,
2013-06-28 05:51:00,55.8,56.0,29.58,NNW,332,0.0,10.0,100,0.10,,,0.90,weatherlink.com 1.10,2013-06-28 09:51:00,
2013-06-28 06:07:00,55.5,56.0,29.59,North,353,5.0,10.0,100,0.06,,,0.91,weatherlink.com 1.10,2013-06-28 10:07:00,
2013-06-28 06:24:00,55.3,55.0,29.58,WSW,251,6.0,11.0,100,0.06,,,0.93,weatherlink.com 1.10,2013-06-28 10:24:00,
2013-06-28 06:40:00,55.0,55.0,29.58,WSW,245,3.0,8.0,100,0.05,,,0.94,weatherlink.com 1.10,2013-06-28 10:40:00,
2013-06-28 06:56:00,54.9,55.0,29.57,WSW,257,2.0,9.0,100,0.06,,,0.96,weatherlink.com 1.10,2013-06-28 10:56:00,
2013-06-28 07:12:00,54.9,55.0,29.57,WSW,258,5.0,8.0,100,0.05,,,0.96,weatherlink.com 1.10,2013-06-28 11:12:00,
2013-06-28 07:31:00,54.9,55.0,29.56,WSW,253,1.0,9.0,100,0.02,,,0.96,weatherlink.com 1.10,2013-06-28 11:31:00,
2013-06-28 07:47:00,55.1,55.0,29.56,WSW,254,3.0,8.0,100,0.03,,,0.98,weatherlink.com 1.10,2013-06-28 11:47:00,
2013-06-28 08:03:00,55.0,55.0,29.55,NW,306,2.0,10.0,100,0.10,,,1.06,weatherlink.com 1.10,2013-06-28 12:03:00,
2013-06-28 08:20:00,55.2,55.0,29.55,SSE,156,0.0,4.0,100,0.13,,,1.09,weatherlink.com 1.10,2013-06-28 12:20:00,
2013-06-28 08:36:00,55.5,56.0,29.54,WNW,284,0.0,6.0,100,0.13,,,1.10,weatherlink.com 1.10,2013-06-28 12:36:00,
2013-06-28 08:53:00,56.2,56.0,29.54,WNW,303,1.0,8.0,99,0.08,,,1.10,weatherlink.com 1.10,2013-06-28 12:53:00,
2013-06-28 09:10:00,56.3,56.0,29.54,West,269,0.0,4.0,99,0.01,,,1.10,weatherlink.com 1.10,2013-06-28 13:10:00,
2013-06-28 09:26:00,56.6,56.0,29.53,SW,223,7.0,7.0,99,0.01,,,1.10,weatherlink.com 1.10,2013-06-28 13:26:00,
2013-06-28 09:42:00,56.4,56.0,29.53,ESE,114,6.0,6.0,99,2.52,,,1.06,weatherlink.com 1.10,2013-06-28 13:42:00,
2013-06-28 10:00:00,56.4,56.0,29.52,West,275,2.0,4.0,99,2.55,,,1.09,weatherlink.com 1.10,2013-06-28 14:00:00,
2013-06-28 10:16:00,57.6,58.0,29.52,West,263,0.0,7.0,100,2.61,,,1.15,weatherlink.com 1.10,2013-06-28 14:16:00,
2013-06-28 10:32:00,59.8,60.0,29.51,WNW,289,2.0,6.0,99,2.61,,,1.15,weatherlink.com 1.10,2013-06-28 14:32:00,
2013-06-28 10:48:00,60.4,60.0,29.50,WNW,284,1.0,8.0,97,0.08,,,1.15,weatherlink.com 1.10,2013-06-28 14:48:00,
2013-06-28 11:05:00,61.8,61.0,29.50,West,265,0.0,7.0,97,0.00,,,1.15,weatherlink.com 1.10,2013-06-28 15:05:00,
2013-06-28 11:21:00,64.6,63.0,29.50,West,260,2.0,6.0,94,0.00,,,1.15,weatherlink.com 1.10,2013-06-28 15:21:00,
2013-06-28 11:38:00,65.7,63.0,29.50,WSW,252,5.0,7.0,92,0.00,,,1.15,weatherlink.com 1.10,2013-06-28 15:38:00,
2013-06-28 11:54:00,67.2,64.0,29.50,ESE,105,5.0,7.0,90,0.00,,,1.15,weatherlink.com 1.10,2013-06-28 15:54:00,
2013-06-28 12:10:00,67.5,64.0,29.49,West,268,0.0,6.0,89,0.00,,,1.15,weatherlink.com 1.10,2013-06-28 16:10:00,
2013-06-28 12:26:00,68.8,65.0,29.49,WSW,242,1.0,6.0,89,0.00,,,1.15,weatherlink.com 1.10,2013-06-28 16:26:00,
2013-06-28 12:43:00,69.8,66.0,29.49,WSW,247,3.0,7.0,88,0.00,,,1.15,weatherlink.com 1.10,2013-06-28 16:43:00,
2013-06-28 12:59:00,72.5,68.0,29.49,NW,317,0.0,6.0,86,0.00,,,1.15,weatherlink.com 1.10,2013-06-28 16:59:00,
2013-06-28 13:15:00,72.3,66.0,29.49,NW,324,0.0,7.0,82,0.00,,,1.15,weatherlink.com 1.10,2013-06-28 17:15:00,
2013-06-28 13:31:00,70.9,66.0,29.49,West,262,0.0,6.0,85,0.00,,,1.15,weatherlink.com 1.10,2013-06-28 17:31:00,
2013-06-28 13:48:00,69.4,65.0,29.50,WNW,296,0.0,1.0,86,0.00,,,1.15,weatherlink.com 1.10,2013-06-28 17:48:00,
2013-06-28 14:04:00,67.9,65.0,29.49,West,262,0.0,0.0,90,0.00,,,1.15,weatherlink.com 1.10,2013-06-28 18:04:00,
2013-06-28 14:20:00,67.9,65.0,29.49,NNW,343,0.0,0.0,92,0.00,,,1.15,weatherlink.com 1.10,2013-06-28 18:20:00,
2013-06-28 14:36:00,67.9,66.0,29.49,WNW,303,0.0,2.0,93,0.01,,,1.16,weatherlink.com 1.10,2013-06-28 18:36:00,
2013-06-28 14:53:00,68.8,67.0,29.47,WNW,298,0.0,0.0,94,0.01,,,1.16,weatherlink.com 1.10,2013-06-28 18:53:00,
2013-06-28 15:09:00,69.0,67.0,29.48,WNW,297,0.0,0.0,92,0.01,,,1.16,weatherlink.com 1.10,2013-06-28 19:09:00,
2013-06-28 15:25:00,68.4,66.0,29.48,NNW,334,0.0,1.0,93,0.01,,,1.16,weatherlink.com 1.10,2013-06-28 19:25:00,
2013-06-28 15:41:00,67.1,65.0,29.48,NW,305,0.0,6.0,93,0.00,,,1.16,weatherlink.com 1.10,2013-06-28 19:41:00,
2013-06-28 15:58:00,69.4,67.0,29.48,NNE,25,2.0,4.0,91,0.00,,,1.16,weatherlink.com 1.10,2013-06-28 19:58:00,
2013-06-28 16:14:00,68.9,66.0,29.48,NW,304,0.0,4.0,91,0.00,,,1.16,weatherlink.com 1.10,2013-06-28 20:14:00,
2013-06-28 16:30:00,70.1,67.0,29.46,West,277,0.0,3.0,91,0.00,,,1.16,weatherlink.com 1.10,2013-06-28 20:30:00,
2013-06-28 16:46:00,70.6,67.0,29.47,West,275,3.0,6.0,88,0.00,,,1.16,weatherlink.com 1.10,2013-06-28 20:46:00,
2013-06-28 17:03:00,71.8,67.0,29.47,NW,312,0.0,3.0,86,0.00,,,1.16,weatherlink.com 1.10,2013-06-28 21:03:00,
2013-06-28 17:19:00,71.2,67.0,29.46,North,6,0.0,3.0,87,0.00,,,1.16,weatherlink.com 1.10,2013-06-28 21:19:00,
2013-06-28 17:35:00,69.3,66.0,29.46,NNE,31,0.0,5.0,90,0.00,,,1.16,weatherlink.com 1.10,2013-06-28 21:35:00,
2013-06-28 17:51:00,67.6,66.0,29.46,NW,313,0.0,7.0,93,0.00,,,1.16,weatherlink.com 1.10,2013-06-28 21:51:00,
2013-06-28 18:08:00,66.7,66.0,29.47,NW,325,0.0,7.0,96,0.00,,,1.16,weatherlink.com 1.10,2013-06-28 22:08:00,
2013-06-28 18:24:00,66.2,66.0,29.48,ESE,107,1.0,3.0,98,0.05,,,1.21,weatherlink.com 1.10,2013-06-28 22:24:00,
2013-06-28 18:40:00,66.4,66.0,29.49,NNE,14,0.0,1.0,97,0.06,,,1.22,weatherlink.com 1.10,2013-06-28 22:40:00,
2013-06-28 18:56:00,65.8,65.0,29.50,NNW,348,0.0,3.0,98,0.09,,,1.25,weatherlink.com 1.10,2013-06-28 22:56:00,
2013-06-28 19:12:00,65.4,65.0,29.50,East,92,0.0,1.0,98,0.15,,,1.33,weatherlink.com 1.10,2013-06-28 23:12:00,
2013-06-28 19:29:00,66.0,66.0,29.50,NW,321,0.0,0.0,99,0.21,,,1.43,weatherlink.com 1.10,2013-06-28 23:29:00,
2013-06-28 19:45:00,66.1,66.0,29.51,SSW,208,1.0,3.0,99,0.30,,,1.53,weatherlink.com 1.10,2013-06-28 23:45:00,
2013-06-28 20:01:00,65.9,66.0,29.50,NE,43,0.0,3.0,99,0.46,,,1.75,weatherlink.com 1.10,2013-06-29 00:01:00,
2013-06-28 20:17:00,66.0,66.0,29.50,NW,320,0.0,1.0,99,0.44,,,1.80,weatherlink.com 1.10,2013-06-29 00:17:00,
2013-06-28 20:34:00,65.9,66.0,29.50,West,270,0.0,1.0,99,0.36,,,1.82,weatherlink.com 1.10,2013-06-29 00:34:00,
2013-06-28 20:50:00,65.9,66.0,29.50,West,270,0.0,0.0,99,0.22,,,1.82,weatherlink.com 1.10,2013-06-29 00:50:00,
2013-06-28 21:06:00,65.8,66.0,29.52,West,270,0.0,0.0,99,0.04,,,1.82,weatherlink.com 1.10,2013-06-29 01:06:00,
2013-06-28 21:22:00,65.7,66.0,29.53,West,277,0.0,0.0,100,0.06,,,1.88,weatherlink.com 1.10,2013-06-29 01:22:00,
2013-06-28 21:39:00,65.6,66.0,29.53,NW,310,0.0,1.0,100,0.11,,,1.93,weatherlink.com 1.10,2013-06-29 01:39:00,
2013-06-28 21:55:00,65.3,65.0,29.52,NW,308,0.0,1.0,100,0.12,,,1.94,weatherlink.com 1.10,2013-06-29 01:55:00,
2013-06-28 22:11:00,64.9,65.0,29.52,WNW,303,0.0,1.0,100,0.12,,,1.94,weatherlink.com 1.10,2013-06-29 02:11:00,
2013-06-28 22:27:00,64.6,65.0,29.52,North,353,0.0,3.0,100,0.04,,,1.94,weatherlink.com 1.10,2013-06-29 02:27:00,
2013-06-28 22:44:00,64.5,65.0,29.53,NNW,346,0.0,2.0,100,0.00,,,1.94,weatherlink.com 1.10,2013-06-29 02:44:00,
2013-06-28 23:00:00,64.3,64.0,29.52,NNW,344,0.0,2.0,100,0.00,,,1.94,weatherlink.com 1.10,2013-06-29 03:00:00,
2013-06-28 23:16:00,63.9,64.0,29.52,NW,310,0.0,2.0,100,0.00,,,1.94,weatherlink.com 1.10,2013-06-29 03:16:00,
2013-06-28 23:32:00,63.7,64.0,29.52,WSW,255,0.0,2.0,100,0.00,,,1.94,weatherlink.com 1.10,2013-06-29 03:32:00,
2013-06-28 23:48:00,63.4,63.0,29.52,WNW,286,0.0,1.0,100,0.00,,,1.94,weatherlink.com 1.10,2013-06-29 03:48:00,